Time;durP1;ratioP1;P1;durP2;ratioP2;P2;SDS_P1;SDS_P2;PMS_P1;PMS_P2;Temp;Humidity;BMP_temperature;BMP_pressure;BME280_temperature;BME280_humidity;BME280_pressure;Samples;Min_cycle;Max_cycle;Signal;HPM_P1;HPM_P2
2023/03/17 00:02:26;;;;;;;4.87;3.03;;;4.70;65.90;;;;;;5164094;28;20550;-48
2023/03/17 00:04:57;;;;;;;8.03;2.67;;;4.70;66.70;;;;;;5164576;28;20192;-47
2023/03/17 00:07:28;;;;;;;6.43;2.97;;;4.70;67.10;;;;;;5164341;28;20376;-50
2023/03/17 00:09:58;;;;;;;5.10;2.80;;;4.70;67.50;;;;;;5165712;28;20185;-47
2023/03/17 00:12:29;;;;;;;8.13;2.80;;;4.60;68.00;;;;;;5163290;28;20556;-47
2023/03/17 00:15:00;;;;;;;6.83;3.10;;;4.60;69.20;;;;;;5167052;28;20273;-48
2023/03/17 00:17:30;;;;;;;11.73;2.90;;;4.60;70.10;;;;;;5164242;28;20189;-48
2023/03/17 00:20:02;;;;;;;4.90;3.27;;;4.60;70.30;;;;;;5166151;28;20276;-48
2023/03/17 00:22:33;;;;;;;5.60;3.27;;;4.60;70.60;;;;;;5162586;28;20181;-48
2023/03/17 00:25:17;;;;;;;4.60;2.63;;;4.60;70.80;;;;;;5162944;28;20447;-49
2023/03/17 00:27:49;;;;;;;3.10;2.90;;;4.60;71.50;;;;;;5161046;28;20442;-47
2023/03/17 00:30:20;;;;;;;3.10;2.80;;;4.70;71.40;;;;;;5165599;28;20432;-49
2023/03/17 00:32:54;;;;;;;4.47;2.70;;;4.50;71.80;;;;;;5165230;28;20452;-48
2023/03/17 00:35:28;;;;;;;4.47;3.50;;;4.50;72.00;;;;;;5165678;28;20499;-47
2023/03/17 00:37:59;;;;;;;4.93;3.30;;;4.50;72.10;;;;;;5161498;28;20465;-47
2023/03/17 00:40:30;;;;;;;5.03;3.10;;;4.50;73.20;;;;;;5162800;28;20437;-51
2023/03/17 00:43:01;;;;;;;4.53;2.93;;;4.50;73.10;;;;;;5162930;28;20263;-48
2023/03/17 00:45:33;;;;;;;8.63;3.03;;;4.50;72.70;;;;;;5160018;28;20217;-48
2023/03/17 00:48:13;;;;;;;7.40;3.13;;;4.50;73.30;;;;;;5163189;28;20944;-49
2023/03/17 00:50:46;;;;;;;3.90;2.70;;;4.50;73.50;;;;;;5162960;28;20751;-48
2023/03/17 00:53:20;;;;;;;3.17;2.87;;;4.50;73.90;;;;;;5161240;28;20487;-48
2023/03/17 00:55:50;;;;;;;5.10;2.90;;;4.50;74.80;;;;;;5163114;28;20835;-48
2023/03/17 00:58:27;;;;;;;7.07;3.50;;;4.40;76.10;;;;;;5162986;28;20436;-48
2023/03/17 01:00:59;;;;;;;7.87;3.60;;;4.40;75.60;;;;;;5158758;28;20652;-47
2023/03/17 01:03:31;;;;;;;6.20;3.13;;;4.40;75.80;;;;;;5162717;28;20846;-49
2023/03/17 01:06:04;;;;;;;4.07;3.67;;;4.50;76.10;;;;;;5164343;28;20463;-48
2023/03/17 01:08:35;;;;;;;10.07;3.37;;;4.50;76.10;;;;;;5162097;28;20440;-49
2023/03/17 01:11:11;;;;;;;10.43;3.17;;;4.40;76.90;;;;;;5163041;28;20444;-48
2023/03/17 01:13:42;;;;;;;3.37;3.07;;;4.30;77.70;;;;;;5166835;28;20499;-49
2023/03/17 01:16:14;;;;;;;6.53;3.90;;;4.40;78.20;;;;;;5168940;28;20455;-46
2023/03/17 01:18:44;;;;;;;6.27;3.77;;;4.40;78.70;;;;;;5167312;28;20185;-49
2023/03/17 01:21:15;;;;;;;4.30;3.03;;;4.40;79.20;;;;;;5166162;28;20425;-48
2023/03/17 01:23:46;;;;;;;7.63;4.00;;;4.40;79.70;;;;;;5166979;28;20586;-49
2023/03/17 01:26:16;;;;;;;6.70;3.60;;;4.40;79.60;;;;;;5165081;28;20209;-48
2023/03/17 01:28:47;;;;;;;11.40;4.20;;;4.40;80.60;;;;;;5166454;28;20224;-47
2023/03/17 01:31:19;;;;;;;6.80;3.47;;;4.40;80.80;;;;;;5150840;28;20189;-46
2023/03/17 01:33:50;;;;;;;10.03;3.13;;;4.40;81.40;;;;;;5168800;28;20509;-47
2023/03/17 01:36:20;;;;;;;5.63;3.90;;;4.40;81.80;;;;;;5167151;28;20468;-47
2023/03/17 01:38:51;;;;;;;3.53;2.83;;;4.50;82.20;;;;;;5170778;28;20181;-48
2023/03/17 01:41:22;;;;;;;11.63;4.43;;;4.40;83.00;;;;;;5168954;28;20178;-48
2023/03/17 01:43:52;;;;;;;5.23;3.47;;;4.40;83.50;;;;;;5171970;28;20178;-47
2023/03/17 01:46:24;;;;;;;4.27;3.57;;;4.30;84.50;;;;;;5153931;28;20299;-47
2023/03/17 01:49:04;;;;;;;7.60;3.57;;;4.30;84.60;;;;;;5167346;28;20214;-49
2023/03/17 01:51:59;;;;;;;6.17;3.60;;;4.30;85.60;;;;;;5170020;28;20447;-50
2023/03/17 01:55:05;;;;;;;3.23;2.67;;;4.30;85.90;;;;;;5170546;28;20472;-47
2023/03/17 01:57:40;;;;;;;4.40;3.80;;;4.30;86.70;;;;;;5170428;28;20454;-48
2023/03/17 02:00:18;;;;;;;5.87;3.73;;;4.30;87.50;;;;;;5183932;28;20943;-49
2023/03/17 02:02:52;;;;;;;3.90;3.10;;;4.30;88.90;;;;;;5169404;28;20494;-46
2023/03/17 02:05:26;;;;;;;6.13;3.90;;;4.30;88.80;;;;;;5169135;28;20470;-47
2023/03/17 02:07:57;;;;;;;4.60;3.33;;;4.20;89.50;;;;;;5170139;28;20527;-46
2023/03/17 02:10:28;;;;;;;10.03;3.80;;;4.30;89.00;;;;;;5171759;28;20471;-48
2023/03/17 02:13:04;;;;;;;5.43;3.73;;;4.20;90.20;;;;;;5167811;28;20435;-48
2023/03/17 02:15:38;;;;;;;10.67;4.00;;;4.20;90.40;;;;;;5172184;28;24553;-48
2023/03/17 02:18:10;;;;;;;3.87;3.60;;;4.20;90.50;;;;;;5172842;28;20486;-47
2023/03/17 02:20:46;;;;;;;7.03;3.63;;;4.20;90.70;;;;;;5174078;28;20427;-48
2023/03/17 02:23:23;;;;;;;12.20;4.23;;;4.20;90.90;;;;;;5173936;28;20436;-47
2023/03/17 02:25:54;;;;;;;5.60;4.00;;;4.20;91.10;;;;;;5174007;28;20454;-47
2023/03/17 02:28:29;;;;;;;7.33;4.30;;;4.20;91.20;;;;;;5171110;28;20444;-46
2023/03/17 02:31:00;;;;;;;4.70;4.00;;;4.20;91.20;;;;;;5174381;28;20447;-49
2023/03/17 02:33:30;;;;;;;8.57;4.23;;;4.20;91.30;;;;;;5174395;28;20467;-49
2023/03/17 02:36:02;;;;;;;5.60;3.10;;;4.20;91.30;;;;;;5173697;28;20208;-47
2023/03/17 02:38:32;;;;;;;4.97;3.60;;;4.20;91.00;;;;;;5171101;28;20260;-48
2023/03/17 02:41:03;;;;;;;15.47;4.20;;;4.20;91.20;;;;;;5169238;28;20538;-49
2023/03/17 02:43:34;;;;;;;11.97;3.77;;;4.20;91.20;;;;;;5168761;28;20196;-49
2023/03/17 02:46:05;;;;;;;9.80;4.57;;;4.20;91.50;;;;;;5171103;28;20751;-48
2023/03/17 02:48:36;;;;;;;6.33;3.30;;;4.10;91.40;;;;;;5167912;28;20444;-48
2023/03/17 02:51:07;;;;;;;6.93;4.23;;;4.20;91.70;;;;;;5170160;28;20532;-47
2023/03/17 02:53:38;;;;;;;6.53;3.43;;;4.10;91.70;;;;;;5167226;28;20489;-50
2023/03/17 02:56:09;;;;;;;9.50;4.30;;;4.10;91.60;;;;;;5164740;28;20236;-48
2023/03/17 02:58:39;;;;;;;3.33;3.13;;;4.10;91.40;;;;;;5162460;28;20246;-47
2023/03/17 03:01:10;;;;;;;4.27;3.90;;;4.20;91.20;;;;;;5165265;28;20803;-48
2023/03/17 03:03:41;;;;;;;6.10;3.33;;;4.20;91.70;;;;;;5166388;28;20184;-47
2023/03/17 03:06:12;;;;;;;5.30;3.47;;;4.10;91.40;;;;;;5169365;28;20471;-46
2023/03/17 03:08:43;;;;;;;5.70;2.93;;;4.10;91.60;;;;;;5165255;28;20444;-47
2023/03/17 03:11:14;;;;;;;4.50;3.63;;;4.20;91.30;;;;;;5164930;28;20208;-49
2023/03/17 03:13:45;;;;;;;5.60;3.57;;;4.20;91.10;;;;;;5161451;28;20214;-49
2023/03/17 03:16:16;;;;;;;4.63;3.90;;;4.20;91.00;;;;;;5160189;28;20201;-47
2023/03/17 03:18:46;;;;;;;6.70;3.80;;;4.30;90.60;;;;;;5162088;28;20455;-47
2023/03/17 03:21:17;;;;;;;6.37;3.60;;;4.30;91.10;;;;;;5166530;28;20259;-48
2023/03/17 03:23:48;;;;;;;10.57;3.83;;;4.30;90.50;;;;;;5164206;28;20538;-47
2023/03/17 03:26:19;;;;;;;12.33;4.40;;;4.20;90.70;;;;;;5162848;28;20209;-47
2023/03/17 03:28:50;;;;;;;7.50;3.77;;;4.20;90.20;;;;;;5164694;28;20482;-49
2023/03/17 03:31:21;;;;;;;4.73;4.00;;;4.20;89.60;;;;;;5174728;28;20193;-49
2023/03/17 03:33:52;;;;;;;8.90;4.20;;;4.30;89.30;;;;;;5165210;28;20204;-50
2023/03/17 03:36:22;;;;;;;8.47;4.43;;;4.20;90.10;;;;;;5164815;28;20463;-48
2023/03/17 03:38:53;;;;;;;6.93;3.43;;;4.20;89.60;;;;;;5166040;28;20272;-49
2023/03/17 03:41:23;;;;;;;4.40;4.00;;;4.20;89.50;;;;;;5162409;28;20189;-47
2023/03/17 03:43:54;;;;;;;6.60;3.50;;;4.20;89.60;;;;;;5161960;28;20181;-47
2023/03/17 03:46:25;;;;;;;7.90;4.17;;;4.20;89.00;;;;;;5182998;23;20232;-51
2023/03/17 03:48:56;;;;;;;9.83;3.63;;;4.20;89.60;;;;;;5182277;28;20621;-53
2023/03/17 03:51:26;;;;;;;4.97;4.20;;;4.20;88.70;;;;;;5179471;28;20466;-52
2023/03/17 03:53:57;;;;;;;5.30;3.67;;;4.20;88.80;;;;;;5179310;28;20710;-53
2023/03/17 03:56:28;;;;;;;3.93;3.20;;;4.20;88.80;;;;;;5179650;28;20224;-52
2023/03/17 03:58:58;;;;;;;5.13;3.37;;;4.20;88.40;;;;;;5162277;28;20188;-52
2023/03/17 04:01:29;;;;;;;9.80;3.60;;;4.20;88.40;;;;;;5161824;28;20177;-51
2023/03/17 04:04:00;;;;;;;4.43;4.00;;;4.20;88.30;;;;;;5159589;28;20272;-52
2023/03/17 04:06:31;;;;;;;4.53;3.33;;;4.10;88.70;;;;;;5161288;28;20208;-52
2023/03/17 04:09:02;;;;;;;9.10;3.70;;;4.20;88.20;;;;;;5157795;28;20445;-52
2023/03/17 04:11:32;;;;;;;10.00;5.07;;;4.20;87.90;;;;;;5163839;28;20173;-51
2023/03/17 04:14:05;;;;;;;10.03;3.63;;;4.20;87.90;;;;;;5162996;28;20478;-52
2023/03/17 04:16:36;;;;;;;6.23;3.50;;;4.20;89.00;;;;;;5158041;28;20193;-50
2023/03/17 04:19:07;;;;;;;4.40;3.83;;;4.10;88.60;;;;;;5161765;28;20439;-51
2023/03/17 04:21:38;;;;;;;8.57;4.07;;;4.10;88.70;;;;;;5162319;28;20706;-52
2023/03/17 04:24:09;;;;;;;3.30;3.03;;;4.10;87.80;;;;;;5146634;28;20519;-53
2023/03/17 04:26:40;;;;;;;8.07;4.27;;;4.10;88.20;;;;;;5165237;28;20201;-52
2023/03/17 04:29:14;;;;;;;8.93;3.73;;;4.20;88.20;;;;;;5164241;28;20300;-51
2023/03/17 04:31:45;;;;;;;9.90;3.97;;;4.10;88.30;;;;;;5164382;28;21026;-52
2023/03/17 04:34:17;;;;;;;6.60;4.30;;;4.10;87.40;;;;;;5163385;28;20463;-52
2023/03/17 04:36:48;;;;;;;9.50;4.07;;;4.00;87.90;;;;;;5147612;28;20450;-51
2023/03/17 04:39:19;;;;;;;5.77;3.80;;;4.00;88.20;;;;;;5162128;28;20432;-53
2023/03/17 04:41:49;;;;;;;5.60;4.33;;;4.00;87.90;;;;;;5163840;28;20428;-51
2023/03/17 04:44:20;;;;;;;7.40;3.77;;;4.00;87.70;;;;;;5164465;28;20787;-51
2023/03/17 04:46:51;;;;;;;8.47;4.77;;;4.00;87.70;;;;;;5161723;28;20716;-51
2023/03/17 04:49:22;;;;;;;4.77;3.60;;;4.00;87.20;;;;;;5161617;28;20189;-51
2023/03/17 04:51:53;;;;;;;4.40;3.13;;;4.00;87.00;;;;;;5168214;28;20924;-53
2023/03/17 04:54:24;;;;;;;6.90;3.90;;;4.00;86.90;;;;;;5160163;28;20204;-51
2023/03/17 04:56:55;;;;;;;3.53;3.23;;;4.10;87.00;;;;;;5160995;28;20972;-52
2023/03/17 04:59:26;;;;;;;11.00;2.93;;;4.00;86.90;;;;;;5160540;28;20268;-52
2023/03/17 05:01:56;;;;;;;5.87;3.50;;;4.00;85.90;;;;;;5162575;28;20464;-53
2023/03/17 05:04:27;;;;;;;4.10;3.23;;;4.00;86.20;;;;;;5160143;28;20924;-51
2023/03/17 05:06:58;;;;;;;3.97;3.53;;;3.90;86.40;;;;;;5160736;28;20197;-52
2023/03/17 05:09:29;;;;;;;5.93;4.10;;;3.90;86.60;;;;;;5160635;28;20193;-53
2023/03/17 05:12:00;;;;;;;13.43;4.60;;;3.90;86.00;;;;;;5157716;28;21155;-52
2023/03/17 05:14:30;;;;;;;3.77;3.47;;;3.90;86.30;;;;;;5157399;28;20253;-52
2023/03/17 05:17:01;;;;;;;8.83;4.17;;;3.90;86.40;;;;;;5159915;28;20351;-51
2023/03/17 05:19:32;;;;;;;3.67;3.20;;;3.90;85.80;;;;;;5163196;28;20196;-50
2023/03/17 05:22:02;;;;;;;7.80;3.23;;;3.90;85.80;;;;;;5163175;28;20185;-53
2023/03/17 05:24:33;;;;;;;7.20;3.30;;;3.90;85.00;;;;;;5163252;28;20189;-52
2023/03/17 05:27:04;;;;;;;12.33;4.30;;;4.00;84.80;;;;;;5159794;28;20563;-51
2023/03/17 05:29:34;;;;;;;9.83;3.67;;;4.00;84.60;;;;;;5159666;28;20181;-51
2023/03/17 05:32:05;;;;;;;3.77;3.47;;;4.10;84.10;;;;;;5154308;28;20248;-52
2023/03/17 05:34:36;;;;;;;5.60;3.67;;;4.10;84.60;;;;;;5163578;28;20597;-51
2023/03/17 05:37:06;;;;;;;9.30;4.27;;;4.00;84.50;;;;;;5160870;28;20630;-51
2023/03/17 05:39:37;;;;;;;10.40;4.20;;;4.10;83.50;;;;;;5159841;28;20224;-52
2023/03/17 05:42:08;;;;;;;4.63;4.00;;;4.20;82.20;;;;;;5159328;28;20188;-52
2023/03/17 05:44:39;;;;;;;9.20;3.83;;;4.10;81.80;;;;;;5159770;28;20185;-52
2023/03/17 05:47:10;;;;;;;4.77;3.67;;;4.20;82.50;;;;;;5157265;28;20479;-51
2023/03/17 05:49:40;;;;;;;6.17;3.63;;;4.20;80.90;;;;;;5161165;28;20509;-51
2023/03/17 05:52:11;;;;;;;8.60;3.30;;;4.20;80.90;;;;;;5152698;28;21079;-52
2023/03/17 05:54:41;;;;;;;12.53;3.83;;;4.30;80.40;;;;;;5154742;28;20251;-52
2023/03/17 05:57:12;;;;;;;7.67;4.07;;;4.30;80.40;;;;;;5159838;28;20260;-52
2023/03/17 05:59:43;;;;;;;4.20;3.47;;;4.20;79.50;;;;;;5141749;28;20180;-52
2023/03/17 06:02:14;;;;;;;5.70;3.53;;;4.20;79.20;;;;;;5160261;28;20271;-52
2023/03/17 06:04:45;;;;;;;7.10;3.27;;;4.30;78.60;;;;;;5159556;28;20305;-52
2023/03/17 06:07:16;;;;;;;6.37;3.37;;;4.40;77.90;;;;;;5161318;28;20929;-51
2023/03/17 06:09:46;;;;;;;8.70;4.03;;;4.40;76.10;;;;;;5159729;28;20201;-53
2023/03/17 06:12:17;;;;;;;4.57;3.67;;;4.50;75.90;;;;;;5160017;28;20786;-53
2023/03/17 06:14:48;;;;;;;6.47;3.73;;;4.50;75.40;;;;;;5160676;28;20205;-52
2023/03/17 06:17:18;;;;;;;3.30;3.07;;;4.50;75.80;;;;;;5159945;28;20630;-53
2023/03/17 06:19:49;;;;;;;9.00;3.53;;;4.50;75.10;;;;;;5157883;28;20180;-52
2023/03/17 06:22:20;;;;;;;6.67;2.60;;;4.50;75.50;;;;;;5159379;28;20671;-51
2023/03/17 06:24:52;;;;;;;14.33;4.30;;;4.50;75.10;;;;;;5164437;28;20280;-51
2023/03/17 06:27:22;;;;;;;3.20;3.00;;;4.50;76.10;;;;;;5164009;28;20207;-53
2023/03/17 06:29:53;;;;;;;8.33;3.63;;;4.50;75.70;;;;;;5163728;28;20436;-51
2023/03/17 06:32:24;;;;;;;4.30;2.87;;;4.50;75.20;;;;;;5161691;28;20251;-53
2023/03/17 06:34:54;;;;;;;5.37;3.37;;;4.50;74.80;;;;;;5157070;28;20247;-51
2023/03/17 06:37:25;;;;;;;3.63;3.33;;;4.60;74.60;;;;;;5162030;28;20288;-52
2023/03/17 06:39:57;;;;;;;5.60;3.20;;;4.70;74.20;;;;;;5160714;28;20189;-52
2023/03/17 06:42:27;;;;;;;5.37;4.37;;;4.70;74.20;;;;;;5159135;28;20659;-52
2023/03/17 06:44:58;;;;;;;5.50;3.90;;;4.80;73.00;;;;;;5147004;28;20436;-53
2023/03/17 06:47:29;;;;;;;9.67;3.77;;;4.70;73.40;;;;;;5153862;28;20217;-52
2023/03/17 06:50:00;;;;;;;4.27;3.87;;;4.70;72.90;;;;;;5156527;28;20182;-51
2023/03/17 06:52:31;;;;;;;8.37;3.80;;;4.70;73.00;;;;;;5158153;28;20443;-52
2023/03/17 06:55:01;;;;;;;4.00;3.40;;;4.70;73.20;;;;;;5163702;28;20213;-52
2023/03/17 06:57:32;;;;;;;8.50;3.90;;;4.70;72.90;;;;;;5156052;28;20197;-50
2023/03/17 07:00:05;;;;;;;6.20;3.33;;;4.80;72.00;;;;;;5158192;28;20177;-53
2023/03/17 07:02:36;;;;;;;8.30;3.83;;;4.90;71.40;;;;;;5160325;28;20186;-52
2023/03/17 07:05:07;;;;;;;6.50;4.00;;;5.20;79.10;;;;;;5162085;28;20443;-52
2023/03/17 07:07:38;;;;;;;4.23;3.23;;;5.50;72.50;;;;;;5164770;28;20240;-52
2023/03/17 07:10:10;;;;;;;3.80;3.47;;;5.90;72.50;;;;;;5166003;28;20435;-52
2023/03/17 07:12:41;;;;;;;6.30;3.97;;;6.20;65.90;;;;;;5156048;28;20522;-52
2023/03/17 07:15:12;;;;;;;8.93;3.23;;;6.40;64.10;;;;;;5177454;28;20475;-52
2023/03/17 07:17:42;;;;;;;15.10;4.30;;;6.40;61.60;;;;;;5159932;28;20452;-49
2023/03/17 07:20:13;;;;;;;4.60;3.13;;;6.30;60.80;;;;;;5158785;28;20775;-50
2023/03/17 07:22:43;;;;;;;4.80;3.77;;;6.10;60.50;;;;;;5163065;28;20262;-51
2023/03/17 07:25:14;;;;;;;9.27;3.97;;;5.90;60.60;;;;;;5168369;28;20271;-52
2023/03/17 07:27:45;;;;;;;8.43;3.50;;;5.90;61.20;;;;;;5166439;28;20201;-50
2023/03/17 07:30:17;;;;;;;8.83;3.63;;;6.00;61.20;;;;;;5161394;28;20181;-52
2023/03/17 07:32:49;;;;;;;10.93;3.90;;;6.80;59.50;;;;;;5166911;28;20269;-51
2023/03/17 07:35:19;;;;;;;17.83;4.10;;;8.00;55.50;;;;;;5154994;28;20965;-51
2023/03/17 07:37:50;;;;;;;12.53;3.63;;;9.20;50.80;;;;;;5159885;28;20504;-51
2023/03/17 07:40:21;;;;;;;5.13;3.47;;;9.60;47.80;;;;;;5137738;28;20536;-51
2023/03/17 07:42:51;;;;;;;9.03;3.60;;;9.50;47.50;;;;;;5156539;28;20187;-50
2023/03/17 07:45:22;;;;;;;4.17;3.23;;;9.30;47.10;;;;;;5155109;28;20757;-51
2023/03/17 07:47:53;;;;;;;7.37;3.80;;;9.20;47.50;;;;;;5159056;28;20212;-52
2023/03/17 07:50:23;;;;;;;5.63;3.33;;;9.30;47.30;;;;;;5171725;28;20916;-50
2023/03/17 07:52:55;;;;;;;10.50;3.90;;;9.10;47.00;;;;;;5159119;28;20477;-52
2023/03/17 07:55:26;;;;;;;3.27;3.00;;;8.70;47.60;;;;;;5160768;28;20716;-52
2023/03/17 07:57:57;;;;;;;11.13;5.57;;;8.50;47.80;;;;;;5163277;28;20463;-52
2023/03/17 08:00:28;;;;;;;7.03;5.13;;;8.40;48.80;;;;;;5155916;28;20441;-50
2023/03/17 08:02:58;;;;;;;6.83;4.40;;;9.00;49.00;;;;;;5154726;28;20932;-52
2023/03/17 08:05:29;;;;;;;6.03;4.10;;;9.80;46.80;;;;;;5157936;28;20264;-50
2023/03/17 08:08:00;;;;;;;3.37;3.17;;;9.90;46.20;;;;;;5153408;28;20181;-51
2023/03/17 08:10:31;;;;;;;5.00;3.40;;;10.00;44.00;;;;;;5155588;28;20444;-52
2023/03/17 08:13:01;;;;;;;4.80;3.13;;;9.70;45.20;;;;;;5157162;28;20185;-51
2023/03/17 08:15:32;;;;;;;5.00;3.67;;;9.50;45.50;;;;;;5161371;28;20195;-51
2023/03/17 08:18:02;;;;;;;9.63;4.27;;;9.60;45.30;;;;;;5161056;28;20188;-52
2023/03/17 08:20:34;;;;;;;4.13;3.73;;;9.80;44.80;;;;;;5160911;28;20185;-54
2023/03/17 08:23:05;;;;;;;5.00;3.40;;;10.10;43.40;;;;;;5155858;28;20181;-50
2023/03/17 08:25:36;;;;;;;13.93;3.90;;;10.00;42.50;;;;;;5159889;28;20436;-50
2023/03/17 08:28:06;;;;;;;6.03;4.00;;;9.70;43.90;;;;;;5159441;28;20810;-52
2023/03/17 08:30:37;;;;;;;7.40;4.57;;;9.70;43.90;;;;;;5155313;28;20185;-52
2023/03/17 08:33:08;;;;;;;8.33;4.07;;;9.80;43.90;;;;;;5162172;28;20181;-51
2023/03/17 08:35:42;;;;;;;3.50;3.20;;;9.90;43.40;;;;;;5156523;28;20211;-51
2023/03/17 08:38:13;;;;;;;9.50;3.87;;;9.70;43.20;;;;;;5174296;28;20467;-53
2023/03/17 08:40:44;;;;;;;6.47;3.70;;;9.70;43.50;;;;;;5160970;28;20448;-52
2023/03/17 08:43:15;;;;;;;6.20;3.47;;;9.80;43.50;;;;;;5158857;28;20582;-51
2023/03/17 08:45:46;;;;;;;6.73;3.30;;;9.90;43.60;;;;;;5153790;28;20879;-50
2023/03/17 08:48:18;;;;;;;6.60;3.13;;;9.60;43.20;;;;;;5155720;28;20853;-51
2023/03/17 08:50:49;;;;;;;5.40;3.60;;;9.30;44.10;;;;;;5155177;28;20428;-52
2023/03/17 08:53:19;;;;;;;6.10;3.37;;;9.30;44.50;;;;;;5149093;28;20831;-51
2023/03/17 08:55:50;;;;;;;6.43;3.53;;;9.20;44.30;;;;;;5154306;28;20232;-52
2023/03/17 08:58:21;;;;;;;7.20;4.33;;;9.50;44.90;;;;;;5153596;28;20185;-49
2023/03/17 09:00:52;;;;;;;4.13;3.13;;;9.40;44.70;;;;;;5158284;28;20450;-51
2023/03/17 09:03:23;;;;;;;6.17;3.33;;;9.50;44.60;;;;;;5157755;28;20428;-53
2023/03/17 09:05:54;;;;;;;3.73;3.13;;;9.50;44.70;;;;;;5157484;28;20463;-50
2023/03/17 09:08:26;;;;;;;7.73;3.33;;;9.40;44.20;;;;;;5164866;28;20199;-51
2023/03/17 09:10:57;;;;;;;4.20;3.83;;;9.30;44.30;;;;;;5155668;28;20180;-51
2023/03/17 09:13:28;;;;;;;7.23;3.83;;;9.40;45.00;;;;;;5161120;28;20547;-51
2023/03/17 09:16:00;;;;;;;7.00;3.60;;;9.50;45.20;;;;;;5155563;28;20457;-52
2023/03/17 09:18:31;;;;;;;12.73;3.40;;;9.40;44.20;;;;;;5155755;28;20181;-52
2023/03/17 09:21:02;;;;;;;3.97;3.10;;;9.50;44.10;;;;;;5156005;28;20467;-52
2023/03/17 09:23:33;;;;;;;6.50;3.83;;;9.80;44.10;;;;;;5155761;28;20436;-52
2023/03/17 09:26:04;;;;;;;6.70;3.83;;;10.10;43.10;;;;;;5156974;28;20225;-52
2023/03/17 09:28:34;;;;;;;5.20;4.23;;;10.40;42.50;;;;;;5150078;28;20207;-52
2023/03/17 09:31:10;;;;;;;6.20;3.60;;;10.60;42.00;;;;;;5159339;28;20553;-52
2023/03/17 09:33:40;;;;;;;9.10;3.50;;;10.50;41.40;;;;;;5160222;28;20207;-52
2023/03/17 09:36:12;;;;;;;6.03;5.13;;;10.30;41.80;;;;;;5159239;28;22309;-52
2023/03/17 09:38:42;;;;;;;5.40;3.70;;;10.50;41.90;;;;;;5168571;28;20189;-53
2023/03/17 09:41:19;;;;;;;4.83;3.07;;;10.50;41.40;;;;;;5161365;28;20471;-52
2023/03/17 09:44:17;;;;;;;3.80;3.50;;;10.60;41.70;;;;;;5162260;28;20271;-52
2023/03/17 09:46:52;;;;;;;11.30;4.23;;;10.70;41.50;;;;;;5168598;23;20526;-49
2023/03/17 09:49:36;;;;;;;8.40;4.87;;;10.80;41.80;;;;;;5158454;28;20436;-49
2023/03/17 09:52:13;;;;;;;12.50;4.37;;;11.10;41.50;;;;;;5152457;28;20444;-49
2023/03/17 09:54:47;;;;;;;5.13;3.40;;;11.20;40.90;;;;;;5155193;28;20546;-49
2023/03/17 09:57:30;;;;;;;4.73;3.57;;;11.10;40.80;;;;;;5143690;28;20449;-47
2023/03/17 10:00:05;;;;;;;11.43;5.10;;;11.10;41.00;;;;;;5144090;28;20983;-49
2023/03/17 10:02:36;;;;;;;6.53;4.17;;;11.40;41.10;;;;;;5140812;28;20437;-48
2023/03/17 10:05:21;;;;;;;9.53;4.60;;;11.70;40.60;;;;;;5140114;28;20443;-48
2023/03/17 10:08:14;;;;;;;3.50;3.20;;;12.10;39.90;;;;;;5137575;28;20972;-47
2023/03/17 10:11:19;;;;;;;8.10;3.20;;;12.10;38.90;;;;;;5140147;28;20440;-48
2023/03/17 10:13:56;;;;;;;3.40;3.13;;;12.10;39.30;;;;;;5139340;28;20831;-49
2023/03/17 10:16:41;;;;;;;5.47;3.50;;;11.70;39.50;;;;;;5137874;28;20455;-48
2023/03/17 10:19:39;;;;;;;4.37;3.43;;;11.60;40.10;;;;;;5153104;28;20521;-47
2023/03/17 10:22:25;;;;;;;3.77;3.17;;;11.70;40.30;;;;;;5150652;28;20483;-48
2023/03/17 10:25:04;;;;;;;6.73;3.50;;;11.70;40.20;;;;;;5141088;28;20437;-48
2023/03/17 10:27:37;;;;;;;7.03;3.53;;;11.80;40.00;;;;;;5143373;28;20457;-48
2023/03/17 10:30:17;;;;;;;4.60;3.20;;;11.70;40.10;;;;;;5146492;28;20929;-52
2023/03/17 10:32:48;;;;;;;10.43;3.80;;;11.60;40.50;;;;;;5145811;28;20967;-47
2023/03/17 10:35:20;;;;;;;10.97;3.00;;;11.70;39.80;;;;;;5143734;28;20583;-47
2023/03/17 10:37:51;;;;;;;6.53;3.30;;;11.70;39.80;;;;;;5144386;28;20515;-46
2023/03/17 10:40:29;;;;;;;4.37;2.50;;;11.70;40.10;;;;;;5143107;28;20540;-50
2023/03/17 10:43:04;;;;;;;4.77;2.97;;;11.90;40.10;;;;;;5160828;28;20587;-47
2023/03/17 10:45:39;;;;;;;7.50;3.23;;;11.80;39.70;;;;;;5142726;28;20460;-50
2023/03/17 10:48:17;;;;;;;3.10;2.63;;;11.90;40.80;;;;;;5158509;28;20444;-50
2023/03/17 10:50:48;;;;;;;7.03;3.10;;;12.10;39.80;;;;;;5139220;28;20437;-48
2023/03/17 10:53:26;;;;;;;3.07;2.80;;;12.30;39.50;;;;;;5142345;28;20488;-49
2023/03/17 10:56:08;;;;;;;5.17;3.20;;;12.40;39.40;;;;;;5138194;28;20248;-48
2023/03/17 10:58:48;;;;;;;3.83;3.30;;;12.40;39.00;;;;;;5141428;28;20486;-52
2023/03/17 11:01:37;;;;;;;4.33;3.10;;;12.50;39.10;;;;;;5152006;28;20445;-49
2023/03/17 11:04:28;;;;;;;7.03;3.50;;;12.50;39.50;;;;;;5136464;28;20437;-49
2023/03/17 11:07:04;;;;;;;24.13;8.73;;;12.40;38.80;;;;;;5141298;28;20495;-50
2023/03/17 11:09:36;;;;;;;11.30;5.83;;;12.60;39.30;;;;;;5139188;28;20456;-50
2023/03/17 11:12:25;;;;;;;3.60;3.30;;;13.00;39.30;;;;;;5159064;28;20451;-47
2023/03/17 11:15:02;;;;;;;3.80;3.50;;;13.00;39.30;;;;;;5141958;28;20465;-47
2023/03/17 11:17:53;;;;;;;4.63;2.97;;;13.20;39.50;;;;;;5158582;28;20500;-49
2023/03/17 11:20:42;;;;;;;4.13;3.43;;;13.20;38.80;;;;;;5138793;28;20433;-50
2023/03/17 11:23:45;;;;;;;6.90;4.00;;;13.30;38.40;;;;;;5154551;28;20487;-48
2023/03/17 11:26:50;;;;;;;2.97;2.57;;;13.40;38.50;;;;;;5142251;28;20459;-49
2023/03/17 11:29:49;;;;;;;3.33;3.03;;;13.40;38.30;;;;;;5132622;28;20512;-52
2023/03/17 11:32:33;;;;;;;4.60;2.80;;;13.20;39.00;;;;;;5154034;28;23435;-49
2023/03/17 11:35:16;;;;;;;3.83;2.73;;;13.30;39.40;;;;;;5141207;28;20515;-48
2023/03/17 11:38:06;;;;;;;3.33;3.03;;;13.50;38.80;;;;;;5161115;28;20466;-51
2023/03/17 11:41:14;;;;;;;10.73;3.07;;;13.60;38.60;;;;;;5143026;28;20491;-50
2023/03/17 11:44:36;;;;;;;2.77;2.57;;;13.80;37.90;;;;;;5158311;28;20811;-49
2023/03/17 11:47:13;;;;;;;4.00;2.40;;;13.80;38.00;;;;;;5152710;28;20988;-51
2023/03/17 11:49:48;;;;;;;2.90;2.60;;;13.70;38.20;;;;;;5135334;28;20444;-48
2023/03/17 11:52:51;;;;;;;7.53;2.37;;;13.90;37.90;;;;;;5136148;28;20948;-49
2023/03/17 11:55:39;;;;;;;3.43;2.83;;;14.00;37.80;;;;;;5143418;28;20472;-51
2023/03/17 11:58:25;;;;;;;7.63;2.33;;;13.80;37.50;;;;;;5142145;28;20449;-49
2023/03/17 12:00:59;;;;;;;3.23;2.50;;;13.50;37.40;;;;;;5154745;28;20436;-49
2023/03/17 12:04:02;;;;;;;6.07;2.77;;;13.20;37.70;;;;;;5141182;28;20445;-49
2023/03/17 12:06:37;;;;;;;3.33;2.20;;;13.30;38.50;;;;;;5138422;28;20842;-50
2023/03/17 12:09:29;;;;;;;6.57;2.00;;;13.20;38.30;;;;;;5152188;28;20565;-50
2023/03/17 12:12:02;;;;;;;3.00;2.40;;;13.30;38.80;;;;;;5137752;28;20447;-50
2023/03/17 12:14:40;;;;;;;2.87;2.63;;;13.50;38.10;;;;;;5137727;28;20778;-50
2023/03/17 12:17:26;;;;;;;5.60;2.63;;;13.50;38.20;;;;;;5137224;28;20452;-48
2023/03/17 12:20:32;;;;;;;7.13;2.57;;;13.60;38.50;;;;;;5142849;28;20476;-48
2023/03/17 12:23:28;;;;;;;2.83;2.33;;;13.60;38.10;;;;;;5152502;28;20468;-50
2023/03/17 12:26:14;;;;;;;6.93;2.10;;;13.50;38.70;;;;;;5145260;28;20536;-48
2023/03/17 12:29:15;;;;;;;6.90;2.20;;;13.40;39.20;;;;;;5138872;28;20469;-48
2023/03/17 12:31:54;;;;;;;4.20;2.17;;;13.30;39.00;;;;;;5139956;28;20471;-48
2023/03/17 12:34:42;;;;;;;2.20;2.10;;;13.30;39.40;;;;;;5140952;28;20457;-49
2023/03/17 12:37:14;;;;;;;2.40;2.20;;;13.30;39.30;;;;;;5134110;28;20492;-48
2023/03/17 12:39:53;;;;;;;5.93;2.20;;;13.30;39.70;;;;;;5142233;28;20500;-49
2023/03/17 12:42:33;;;;;;;4.27;2.57;;;13.40;39.80;;;;;;5155999;28;20807;-49
2023/03/17 12:45:19;;;;;;;2.03;1.90;;;13.40;39.60;;;;;;5140411;28;20444;-50
2023/03/17 12:48:11;;;;;;;4.00;2.20;;;13.50;39.30;;;;;;5140553;28;20468;-53
2023/03/17 12:51:05;;;;;;;4.27;2.13;;;13.50;39.60;;;;;;5140332;28;20531;-49
2023/03/17 12:53:40;;;;;;;2.83;2.33;;;13.40;39.80;;;;;;5139868;28;20468;-53
2023/03/17 12:56:17;;;;;;;4.10;2.10;;;13.40;39.60;;;;;;5156757;28;20566;-49
2023/03/17 12:58:50;;;;;;;6.43;2.10;;;13.40;39.40;;;;;;5136503;28;20439;-49
2023/03/17 13:01:44;;;;;;;2.90;2.30;;;13.50;39.60;;;;;;5137192;28;20437;-48
2023/03/17 13:04:34;;;;;;;2.03;1.93;;;13.70;39.70;;;;;;5128877;28;20454;-49
2023/03/17 13:07:13;;;;;;;2.63;2.30;;;13.90;39.00;;;;;;5137579;28;20493;-51
2023/03/17 13:09:52;;;;;;;2.43;2.30;;;13.90;38.70;;;;;;5121041;28;20736;-48
2023/03/17 13:12:42;;;;;;;4.63;2.10;;;13.80;38.60;;;;;;5139040;28;20524;-48
2023/03/17 13:15:25;;;;;;;4.90;2.90;;;13.80;39.00;;;;;;5153833;28;20492;-50
2023/03/17 13:18:12;;;;;;;5.90;2.57;;;13.80;38.80;;;;;;5153538;28;20461;-49
2023/03/17 13:21:10;;;;;;;1.83;1.73;;;13.90;38.30;;;;;;5155320;28;20436;-49
2023/03/17 13:24:01;;;;;;;2.33;1.53;;;14.00;38.00;;;;;;5137981;28;20455;-48
2023/03/17 13:26:59;;;;;;;7.70;2.20;;;14.10;37.90;;;;;;5139538;28;20503;-50
2023/03/17 13:29:40;;;;;;;8.10;2.17;;;14.00;37.90;;;;;;5132576;28;20445;-49
2023/03/17 13:32:14;;;;;;;3.00;2.67;;;13.90;38.10;;;;;;5151953;28;20460;-49
2023/03/17 13:35:12;;;;;;;3.37;2.60;;;13.90;38.40;;;;;;5136703;28;20479;-49